Aberaeron, United Kingdom
Current Conditions -  °F | °C
As of 7:50 PM on Thursday 29 Jan 2015 (Local Time) from EGOP Reporting Station
Scattered Clouds Scattered Clouds  
Wind Chill: 28°   Ceiling: Unl
Heat Index: 39°   Visibility: 6mi
Dew Point: 32°   Wind: 26mph
Humidity: 75%   Direction: 300°WNW
Pressure: 29.03"   Gusts: NA
Location:  52.24°N, 4.26°W
Report Text: EGOP 291950Z AUTO 30023KT 9999 // FEW031/// SCT040/// 04/M00 Q0983
Loading
Personal Weather Stations






























Interactive Weather Map New forecast layout! Learn more

10-Day Weather Forecast

Advertisements
Track Severe Weather on mobile